Time;durP1;ratioP1;P1;durP2;ratioP2;P2;SDS_P1;SDS_P2;PMS_P1;PMS_P2;Temp;Humidity;BMP_temperature;BMP_pressure;BME280_temperature;BME280_humidity;BME280_pressure;Samples;Min_cycle;Max_cycle;Signal;HPM_P1;HPM_P2
2023/10/02 00:00:32;;;;;;;14.60;9.00;;;18.00;99.90;;;;;;2059640;28;20030;-75
2023/10/02 00:01:36;;;;;;;15.75;9.77;;;18.00;99.90;;;;;;2058919;28;20550;-74
2023/10/02 00:02:43;;;;;;;12.57;9.30;;;18.00;99.90;;;;;;2059226;28;20034;-75
2023/10/02 00:03:47;;;;;;;15.68;10.48;;;18.00;99.90;;;;;;2060344;28;20441;-75
2023/10/02 00:04:49;;;;;;;13.73;9.95;;;18.00;99.90;;;;;;2069621;28;20483;-74
2023/10/02 00:05:50;;;;;;;14.80;9.18;;;18.00;99.90;;;;;;2071071;28;20088;-75
2023/10/02 00:07:05;;;;;;;15.65;9.93;;;18.00;99.90;;;;;;2068932;28;20100;-74
2023/10/02 00:08:06;;;;;;;15.80;9.73;;;18.00;99.90;;;;;;2068637;28;20029;-75
2023/10/02 00:09:07;;;;;;;16.70;10.02;;;18.00;99.90;;;;;;2060274;28;20034;-74
2023/10/02 00:10:08;;;;;;;15.00;9.98;;;18.00;99.90;;;;;;2058866;28;20118;-74
2023/10/02 00:12:58;;;;;;;14.43;10.20;;;18.00;99.90;;;;;;2059765;28;20045;-74
2023/10/02 00:14:19;;;;;;;17.02;10.75;;;18.00;99.90;;;;;;2068753;28;20022;-74
2023/10/02 00:15:19;;;;;;;14.63;9.82;;;18.00;99.90;;;;;;2069811;28;20512;-74
2023/10/02 00:16:20;;;;;;;13.07;8.82;;;17.90;99.90;;;;;;2068820;28;20572;-75
2023/10/02 00:17:23;;;;;;;14.07;9.20;;;18.00;99.90;;;;;;2059639;28;20030;-74
2023/10/02 00:18:27;;;;;;;13.32;9.25;;;17.90;99.90;;;;;;2057594;28;20044;-75
2023/10/02 00:19:37;;;;;;;12.68;9.05;;;17.90;99.90;;;;;;2069436;28;20026;-74
2023/10/02 00:20:38;;;;;;;15.32;10.43;;;17.90;99.90;;;;;;2067718;28;20388;-74
2023/10/02 00:21:39;;;;;;;14.93;10.30;;;17.90;99.90;;;;;;2069326;28;20152;-75
2023/10/02 00:22:42;;;;;;;18.58;10.10;;;17.90;99.90;;;;;;2067371;28;20026;-74
2023/10/02 00:23:59;;;;;;;16.25;10.15;;;17.90;99.90;;;;;;2067858;28;20076;-74
2023/10/02 00:25:02;;;;;;;15.93;10.13;;;17.90;99.90;;;;;;2069506;28;20026;-74
2023/10/02 00:26:04;;;;;;;13.23;8.65;;;17.90;99.90;;;;;;2068151;28;20353;-74
2023/10/02 00:27:10;;;;;;;13.43;9.32;;;17.90;99.90;;;;;;2068459;28;20026;-74
2023/10/02 00:28:10;;;;;;;13.48;9.20;;;17.90;99.90;;;;;;2067926;28;20050;-74
2023/10/02 00:29:11;;;;;;;15.52;9.63;;;17.90;99.90;;;;;;2069630;28;20038;-74
2023/10/02 00:30:13;;;;;;;14.38;9.63;;;17.90;99.90;;;;;;2060690;28;20089;-74
2023/10/02 00:31:32;;;;;;;13.65;8.90;;;17.80;99.90;;;;;;2056156;28;20081;-74
2023/10/02 00:32:34;;;;;;;13.90;8.50;;;17.90;99.90;;;;;;2062460;28;20089;-75
2023/10/02 00:33:35;;;;;;;12.40;9.13;;;17.90;99.90;;;;;;2067873;28;20118;-74
2023/10/02 00:34:36;;;;;;;14.95;9.02;;;17.90;99.90;;;;;;2068777;28;20483;-75
2023/10/02 00:35:50;;;;;;;14.77;9.57;;;17.90;99.90;;;;;;2068138;28;20549;-75
2023/10/02 00:36:52;;;;;;;14.57;9.48;;;17.80;99.90;;;;;;2060749;28;20028;-75
2023/10/02 00:37:52;;;;;;;14.20;9.70;;;17.80;99.90;;;;;;2054389;28;20841;-74
2023/10/02 00:38:53;;;;;;;15.88;10.40;;;17.80;99.90;;;;;;2061753;28;20807;-75
2023/10/02 00:39:53;;;;;;;12.88;9.32;;;17.80;99.90;;;;;;2069467;28;20081;-75
2023/10/02 00:40:54;;;;;;;15.50;9.75;;;17.80;99.90;;;;;;2069765;28;20036;-75
2023/10/02 00:42:15;;;;;;;15.52;10.65;;;17.80;99.90;;;;;;2070029;28;20440;-74
2023/10/02 00:43:34;;;;;;;13.88;8.93;;;17.80;99.90;;;;;;2059121;28;20038;-75
2023/10/02 00:46:00;;;;;;;15.68;9.38;;;17.70;99.90;;;;;;2070303;28;20676;-75
2023/10/02 00:47:00;;;;;;;15.38;9.75;;;17.70;99.90;;;;;;2068720;28;20030;-74
2023/10/02 00:49:25;;;;;;;16.25;10.20;;;17.70;99.90;;;;;;2068514;28;20120;-75
2023/10/02 00:50:25;;;;;;;17.08;10.35;;;17.70;99.90;;;;;;2070000;28;20018;-75
2023/10/02 00:51:27;;;;;;;14.95;9.68;;;17.70;99.90;;;;;;2067750;28;20034;-75
2023/10/02 00:52:28;;;;;;;14.75;9.65;;;17.70;99.90;;;;;;2068200;28;20037;-74
2023/10/02 00:53:40;;;;;;;15.98;10.20;;;17.70;99.90;;;;;;2068379;28;20030;-75
2023/10/02 00:54:41;;;;;;;12.38;8.63;;;17.70;99.90;;;;;;2068177;28;20056;-75
2023/10/02 00:55:45;;;;;;;13.98;9.05;;;17.60;99.90;;;;;;2069437;28;20041;-75
2023/10/02 00:56:47;;;;;;;16.73;10.15;;;17.60;99.90;;;;;;2059907;28;20015;-74
2023/10/02 00:57:50;;;;;;;15.88;9.55;;;17.60;99.90;;;;;;2068435;28;20124;-74
2023/10/02 00:58:58;;;;;;;14.52;9.05;;;17.60;99.90;;;;;;2066999;28;20030;-75
2023/10/02 00:59:59;;;;;;;12.27;8.40;;;17.60;99.90;;;;;;2063388;28;20050;-74
2023/10/02 01:01:01;;;;;;;13.13;9.27;;;17.60;99.90;;;;;;2062666;28;20026;-74
2023/10/02 01:02:05;;;;;;;16.20;9.32;;;17.60;99.90;;;;;;2061702;28;20053;-74
2023/10/02 01:03:08;;;;;;;13.98;10.20;;;17.60;99.90;;;;;;2068110;28;20667;-75
2023/10/02 01:04:09;;;;;;;20.48;10.60;;;17.60;99.90;;;;;;2067992;28;20042;-74
2023/10/02 01:05:14;;;;;;;17.08;9.75;;;17.60;99.90;;;;;;2068092;28;20061;-74
2023/10/02 01:06:16;;;;;;;15.50;9.80;;;17.60;99.90;;;;;;2063736;28;20034;-75
2023/10/02 01:07:17;;;;;;;13.57;9.68;;;17.60;99.90;;;;;;2067647;28;20030;-75
2023/10/02 01:08:24;;;;;;;19.05;9.68;;;17.60;99.90;;;;;;2068904;28;20085;-74
2023/10/02 01:09:26;;;;;;;13.63;9.30;;;17.60;99.90;;;;;;2068888;28;20026;-75
2023/10/02 01:10:30;;;;;;;16.90;10.20;;;17.50;99.90;;;;;;2058191;28;20049;-74
2023/10/02 01:11:34;;;;;;;17.23;10.25;;;17.50;99.90;;;;;;2050331;28;20383;-75
2023/10/02 01:12:43;;;;;;;14.05;9.98;;;17.50;99.90;;;;;;2052661;28;20528;-75
2023/10/02 01:13:44;;;;;;;13.35;9.70;;;17.50;99.90;;;;;;2062425;28;20018;-74
2023/10/02 01:14:51;;;;;;;15.88;10.93;;;17.50;99.90;;;;;;2067388;28;20057;-75
2023/10/02 01:15:51;;;;;;;15.25;10.82;;;17.50;99.90;;;;;;2058785;28;20035;-75
2023/10/02 01:16:54;;;;;;;13.80;9.93;;;17.50;99.90;;;;;;2059525;28;20060;-74
2023/10/02 01:19:16;;;;;;;15.40;10.73;;;17.50;99.90;;;;;;2068401;28;20412;-75
2023/10/02 01:20:38;;;;;;;14.80;9.65;;;17.40;99.90;;;;;;2069414;28;20034;-75
2023/10/02 01:21:40;;;;;;;15.82;9.63;;;17.40;99.90;;;;;;2068152;28;20033;-74
2023/10/02 01:22:42;;;;;;;16.27;9.57;;;17.40;99.90;;;;;;2068125;28;20378;-74
2023/10/02 01:24:08;;;;;;;13.75;9.82;;;17.40;99.90;;;;;;2057352;28;20117;-75
2023/10/02 01:25:12;;;;;;;15.85;10.10;;;17.40;99.90;;;;;;2061893;28;20088;-74
2023/10/02 01:26:18;;;;;;;15.75;9.70;;;17.40;99.90;;;;;;2067814;28;20560;-74
2023/10/02 01:27:22;;;;;;;13.13;9.43;;;17.40;99.90;;;;;;2068647;28;20056;-74
2023/10/02 01:28:25;;;;;;;15.35;9.40;;;17.40;99.90;;;;;;2069122;28;20061;-74
2023/10/02 01:29:27;;;;;;;14.27;9.40;;;17.40;99.90;;;;;;2067252;28;20396;-75
2023/10/02 01:30:28;;;;;;;13.65;8.88;;;17.40;99.90;;;;;;2068420;28;20034;-74
2023/10/02 01:31:35;;;;;;;15.55;10.23;;;17.40;99.90;;;;;;2069511;28;20492;-75
2023/10/02 01:32:37;;;;;;;17.02;9.70;;;17.40;99.90;;;;;;2068670;28;20034;-74
2023/10/02 01:33:37;;;;;;;16.08;10.15;;;17.40;99.90;;;;;;2067563;28;20022;-74
2023/10/02 01:34:39;;;;;;;15.82;10.50;;;17.40;99.90;;;;;;2067955;28;20176;-75
2023/10/02 01:35:56;;;;;;;15.38;10.20;;;17.40;99.90;;;;;;2059139;28;20018;-74
2023/10/02 01:36:57;;;;;;;15.52;9.55;;;17.40;99.90;;;;;;2060710;28;21065;-74
2023/10/02 01:37:58;;;;;;;13.85;9.77;;;17.30;99.90;;;;;;2068954;28;20053;-75
2023/10/02 01:39:10;;;;;;;16.67;10.05;;;17.30;99.90;;;;;;2068803;28;20022;-75
2023/10/02 01:41:32;;;;;;;17.00;11.20;;;17.30;99.90;;;;;;2065759;28;20034;-74
2023/10/02 01:42:33;;;;;;;16.05;10.55;;;17.30;99.90;;;;;;2067635;28;20075;-74
2023/10/02 01:43:42;;;;;;;16.88;10.48;;;17.30;99.90;;;;;;2066523;28;20084;-74
2023/10/02 01:44:55;;;;;;;15.82;10.00;;;17.30;99.90;;;;;;2068600;28;20380;-75
2023/10/02 01:46:00;;;;;;;16.48;10.07;;;17.30;99.90;;;;;;2053891;28;20468;-75
2023/10/02 01:47:04;;;;;;;17.10;10.43;;;17.30;99.90;;;;;;2053494;28;20054;-75
2023/10/02 01:48:08;;;;;;;17.05;10.02;;;17.30;99.90;;;;;;2062766;28;20141;-75
2023/10/02 01:49:24;;;;;;;14.63;10.23;;;17.30;99.90;;;;;;2068420;28;20556;-74
2023/10/02 01:50:24;;;;;;;15.95;10.65;;;17.20;99.90;;;;;;2057560;28;20057;-74
2023/10/02 01:51:27;;;;;;;17.95;11.10;;;17.20;99.90;;;;;;2058706;28;20031;-75
2023/10/02 01:52:28;;;;;;;16.15;10.15;;;17.20;99.90;;;;;;2068804;28;20037;-75
2023/10/02 01:53:29;;;;;;;15.02;9.98;;;17.20;99.90;;;;;;2067727;28;20030;-75
2023/10/02 01:54:30;;;;;;;17.75;10.27;;;17.20;99.90;;;;;;2069105;28;20422;-75
2023/10/02 01:55:35;;;;;;;15.00;10.10;;;17.20;99.90;;;;;;2059465;28;20363;-75
2023/10/02 01:56:35;;;;;;;15.55;9.90;;;17.20;99.90;;;;;;2061340;28;20066;-74
2023/10/02 01:57:36;;;;;;;16.70;10.50;;;17.20;99.90;;;;;;2068071;28;20033;-75
2023/10/02 01:58:39;;;;;;;16.65;10.93;;;17.20;99.90;;;;;;2066248;28;20033;-75
2023/10/02 01:59:39;;;;;;;20.50;11.13;;;17.20;99.90;;;;;;2057879;28;20497;-75
2023/10/02 02:00:40;;;;;;;16.55;10.65;;;17.20;99.90;;;;;;2056570;28;20744;-75
2023/10/02 02:01:54;;;;;;;18.23;9.95;;;17.20;99.90;;;;;;2061070;28;20053;-75
2023/10/02 02:03:14;;;;;;;16.85;10.45;;;17.20;99.90;;;;;;2062224;28;20034;-75
2023/10/02 02:04:15;;;;;;;16.83;11.27;;;17.20;99.90;;;;;;2067940;28;20046;-75
2023/10/02 02:05:15;;;;;;;16.35;10.15;;;17.20;99.90;;;;;;2068345;28;20516;-75
2023/10/02 02:06:21;;;;;;;18.15;10.20;;;17.10;99.90;;;;;;2067892;28;20034;-74
2023/10/02 02:07:21;;;;;;;18.20;11.60;;;17.10;99.90;;;;;;2068340;28;20061;-74
2023/10/02 02:08:22;;;;;;;17.90;10.27;;;17.10;99.90;;;;;;2059742;28;20039;-75
2023/10/02 02:09:30;;;;;;;17.13;11.32;;;17.10;99.90;;;;;;2059789;28;20034;-75
2023/10/02 02:10:32;;;;;;;17.35;10.82;;;17.10;99.90;;;;;;2068153;28;20049;-74
2023/10/02 02:11:34;;;;;;;13.40;9.80;;;17.20;99.90;;;;;;2067175;28;20042;-74
2023/10/02 02:12:44;;;;;;;17.88;10.52;;;17.10;99.90;;;;;;2068196;28;20030;-75
2023/10/02 02:13:53;;;;;;;15.90;10.45;;;17.10;99.90;;;;;;2056962;28;20057;-75
2023/10/02 02:14:56;;;;;;;15.82;10.55;;;17.10;99.90;;;;;;2058966;28;20076;-75
2023/10/02 02:16:07;;;;;;;15.18;10.13;;;17.10;99.90;;;;;;2068420;28;20106;-75
2023/10/02 02:17:10;;;;;;;16.58;10.02;;;17.10;99.90;;;;;;2069449;28;20049;-74
2023/10/02 02:18:11;;;;;;;17.30;10.93;;;17.10;99.90;;;;;;2068812;28;20026;-74
2023/10/02 02:19:12;;;;;;;16.75;10.30;;;17.10;99.90;;;;;;2063407;28;20112;-74
2023/10/02 02:20:43;;;;;;;16.63;10.35;;;17.10;99.90;;;;;;2063973;28;20515;-74
2023/10/02 02:21:34;;;;;;;17.65;10.18;;;17.10;99.90;;;;;;2070338;28;20503;-75
2023/10/02 02:22:36;;;;;;;18.13;10.40;;;17.10;99.90;;;;;;2068285;28;20556;-74
2023/10/02 02:23:37;;;;;;;16.05;10.52;;;17.10;99.90;;;;;;2069428;28;20605;-74
2023/10/02 02:24:38;;;;;;;15.70;10.00;;;17.10;99.90;;;;;;2070768;28;20388;-75
2023/10/02 02:25:39;;;;;;;14.55;10.13;;;17.10;99.90;;;;;;2059516;28;20500;-75
2023/10/02 02:26:39;;;;;;;16.60;10.25;;;17.10;99.90;;;;;;2052809;28;20027;-74
2023/10/02 02:27:45;;;;;;;15.00;9.60;;;17.10;99.90;;;;;;2062433;28;20022;-74
2023/10/02 02:28:48;;;;;;;15.35;10.00;;;17.10;99.90;;;;;;2068655;28;20105;-75
2023/10/02 02:29:50;;;;;;;18.45;11.02;;;17.10;99.90;;;;;;2069614;28;20368;-74
2023/10/02 02:30:50;;;;;;;15.95;9.80;;;17.10;99.90;;;;;;2069461;28;20537;-74
2023/10/02 02:31:51;;;;;;;18.58;10.82;;;17.20;99.90;;;;;;2069806;28;20361;-74
2023/10/02 02:32:54;;;;;;;15.63;10.27;;;17.10;99.90;;;;;;2070073;28;20038;-74
2023/10/02 02:33:57;;;;;;;16.30;10.32;;;17.10;99.90;;;;;;2068678;28;20030;-74
2023/10/02 02:35:00;;;;;;;16.10;10.65;;;17.20;99.90;;;;;;2069553;28;20060;-74
2023/10/02 02:36:05;;;;;;;17.50;11.43;;;17.20;99.90;;;;;;2068765;28;20116;-74
2023/10/02 02:37:06;;;;;;;17.75;11.27;;;17.10;99.90;;;;;;2068294;28;20026;-74
2023/10/02 02:38:14;;;;;;;18.10;11.23;;;17.10;99.90;;;;;;2068466;28;20034;-74
2023/10/02 02:39:17;;;;;;;14.35;9.93;;;17.10;99.90;;;;;;2060933;28;20034;-74
2023/10/02 02:40:25;;;;;;;15.05;10.55;;;17.10;99.90;;;;;;2061360;28;20022;-74
2023/10/02 02:41:27;;;;;;;18.30;10.43;;;17.10;99.90;;;;;;2067788;28;20369;-74
2023/10/02 02:42:30;;;;;;;17.92;11.23;;;17.10;99.90;;;;;;2071250;28;20037;-74
2023/10/02 02:43:32;;;;;;;17.63;10.63;;;17.10;99.90;;;;;;2069602;28;20032;-74
2023/10/02 02:44:39;;;;;;;14.27;9.90;;;17.10;99.90;;;;;;2068216;28;20489;-74
2023/10/02 02:45:41;;;;;;;17.35;10.65;;;17.10;99.90;;;;;;2062530;28;20061;-74
2023/10/02 02:46:53;;;;;;;18.77;10.82;;;17.10;99.90;;;;;;2061440;28;20094;-74
2023/10/02 02:48:05;;;;;;;15.93;10.40;;;17.10;99.90;;;;;;2063463;28;20107;-74
2023/10/02 02:49:07;;;;;;;15.02;9.93;;;17.10;99.90;;;;;;2068245;28;20042;-73
2023/10/02 02:50:08;;;;;;;16.83;10.90;;;17.10;99.90;;;;;;2070497;28;20070;-73
2023/10/02 02:51:14;;;;;;;17.77;10.32;;;17.10;99.90;;;;;;2070336;28;20033;-73
2023/10/02 02:52:19;;;;;;;16.38;10.23;;;17.10;99.90;;;;;;2060619;28;20026;-73
2023/10/02 02:53:23;;;;;;;13.98;9.80;;;17.10;99.90;;;;;;2061323;28;20034;-73
2023/10/02 02:54:25;;;;;;;15.93;10.18;;;17.10;99.90;;;;;;2068554;28;20026;-73
2023/10/02 02:55:26;;;;;;;16.92;10.60;;;17.10;99.90;;;;;;2069761;28;20034;-73
2023/10/02 02:56:28;;;;;;;14.93;9.90;;;17.10;99.90;;;;;;2070248;28;20630;-73
2023/10/02 02:57:33;;;;;;;15.77;10.65;;;17.10;99.90;;;;;;2069451;28;20018;-73
2023/10/02 02:58:35;;;;;;;18.13;10.73;;;17.10;99.90;;;;;;2060997;28;20030;-74
2023/10/02 02:59:38;;;;;;;15.63;9.88;;;17.10;99.90;;;;;;2063442;28;20029;-73
2023/10/02 03:00:39;;;;;;;15.65;10.65;;;17.10;99.90;;;;;;2069498;28;20018;-73
2023/10/02 03:01:40;;;;;;;18.05;10.20;;;17.10;99.90;;;;;;2070536;28;20108;-73
2023/10/02 03:02:45;;;;;;;14.05;9.35;;;17.10;99.90;;;;;;2069602;28;20021;-74
2023/10/02 03:03:49;;;;;;;14.30;9.95;;;17.10;99.90;;;;;;2067801;28;20030;-73
2023/10/02 03:04:56;;;;;;;15.30;10.45;;;17.10;99.90;;;;;;2070979;28;20018;-73
2023/10/02 03:06:00;;;;;;;14.70;9.75;;;17.10;99.90;;;;;;2068903;28;20020;-73
2023/10/02 03:07:09;;;;;;;18.52;11.32;;;17.10;99.90;;;;;;2070118;28;20022;-73
2023/10/02 03:08:11;;;;;;;15.68;10.05;;;17.10;99.90;;;;;;2069075;28;20096;-73
2023/10/02 03:09:23;;;;;;;17.73;10.25;;;17.10;99.90;;;;;;2070024;28;20528;-73
2023/10/02 03:10:24;;;;;;;15.55;10.48;;;17.10;99.90;;;;;;2068640;28;20488;-73
2023/10/02 03:11:28;;;;;;;13.98;9.88;;;17.10;99.90;;;;;;2068714;28;20030;-72
2023/10/02 03:12:29;;;;;;;14.93;9.95;;;17.10;99.90;;;;;;2070500;28;20373;-73
2023/10/02 03:13:31;;;;;;;16.85;10.63;;;17.10;99.90;;;;;;2069122;28;20029;-73
2023/10/02 03:14:34;;;;;;;15.82;10.05;;;17.10;99.90;;;;;;2070393;28;20021;-73
2023/10/02 03:15:47;;;;;;;16.38;10.35;;;17.10;99.90;;;;;;2069494;28;20022;-73
2023/10/02 03:16:47;;;;;;;16.67;10.40;;;17.10;99.90;;;;;;2067246;28;20019;-73
2023/10/02 03:17:51;;;;;;;14.80;9.80;;;17.10;99.90;;;;;;2061469;28;20050;-74
2023/10/02 03:18:54;;;;;;;13.75;9.20;;;17.10;99.90;;;;;;2062565;28;20465;-73
2023/10/02 03:19:58;;;;;;;14.35;10.48;;;17.10;99.90;;;;;;2067378;28;20034;-73
2023/10/02 03:22:10;;;;;;;16.75;10.40;;;17.10;99.90;;;;;;2070192;28;20043;-73
2023/10/02 03:23:12;;;;;;;17.52;9.80;;;17.10;99.90;;;;;;2069720;28;20031;-73
2023/10/02 03:24:18;;;;;;;15.57;10.15;;;17.10;99.90;;;;;;2069121;28;20486;-73
2023/10/02 03:25:40;;;;;;;16.50;10.48;;;17.10;99.90;;;;;;2069607;28;20029;-73
2023/10/02 03:26:43;;;;;;;16.10;10.07;;;17.10;99.90;;;;;;2068170;28;20397;-73
2023/10/02 03:27:44;;;;;;;14.75;10.00;;;17.10;99.90;;;;;;2067825;28;20018;-73
2023/10/02 03:28:44;;;;;;;15.77;10.50;;;17.10;99.90;;;;;;2068800;28;20033;-73
2023/10/02 03:29:45;;;;;;;19.23;10.15;;;17.10;99.90;;;;;;2069586;28;20061;-74
2023/10/02 03:30:47;;;;;;;15.15;9.50;;;17.10;99.90;;;;;;2068102;28;20036;-73
2023/10/02 03:31:51;;;;;;;17.90;10.63;;;17.10;99.90;;;;;;2068049;28;20030;-73
2023/10/02 03:32:52;;;;;;;18.45;10.57;;;17.10;99.90;;;;;;2068637;28;20026;-73
2023/10/02 03:33:53;;;;;;;16.10;10.38;;;17.10;99.90;;;;;;2064852;28;20034;-73
2023/10/02 03:35:02;;;;;;;14.90;10.70;;;17.10;99.90;;;;;;2065090;28;20018;-73
2023/10/02 03:36:09;;;;;;;12.85;9.65;;;17.10;99.90;;;;;;2069140;28;20065;-73
2023/10/02 03:38:14;;;;;;;14.80;10.43;;;17.10;99.90;;;;;;2068944;28;20048;-73
2023/10/02 03:39:23;;;;;;;17.20;10.68;;;17.10;99.90;;;;;;2061309;28;20480;-74
2023/10/02 03:40:25;;;;;;;14.60;9.93;;;17.10;99.90;;;;;;2061988;28;20149;-74
2023/10/02 03:41:44;;;;;;;14.88;9.65;;;17.10;99.90;;;;;;2070216;28;20022;-73
2023/10/02 03:42:47;;;;;;;16.35;10.38;;;17.10;99.90;;;;;;2063605;28;20038;-73
2023/10/02 03:43:48;;;;;;;15.30;10.02;;;17.00;99.90;;;;;;2068440;28;20065;-73
2023/10/02 03:44:50;;;;;;;14.43;8.75;;;17.10;99.90;;;;;;2070409;28;20441;-73
2023/10/02 03:45:51;;;;;;;15.35;10.05;;;17.10;99.90;;;;;;2068492;28;20062;-74
2023/10/02 03:46:53;;;;;;;14.68;9.75;;;17.10;99.90;;;;;;2061590;28;20027;-74
2023/10/02 03:48:02;;;;;;;16.42;10.10;;;17.00;99.90;;;;;;2060846;28;20880;-73
2023/10/02 03:49:06;;;;;;;16.65;11.77;;;17.10;99.90;;;;;;2069583;28;20032;-74
2023/10/02 03:50:12;;;;;;;16.10;10.15;;;17.00;99.90;;;;;;2058903;28;20457;-72
2023/10/02 03:51:12;;;;;;;17.35;10.23;;;17.00;99.90;;;;;;2057936;28;20036;-73
2023/10/02 03:52:14;;;;;;;17.10;10.75;;;17.00;99.90;;;;;;2061582;28;20034;-74
2023/10/02 03:53:28;;;;;;;16.45;10.25;;;17.00;99.90;;;;;;2067532;28;20045;-74
2023/10/02 03:54:29;;;;;;;17.10;10.43;;;17.00;99.90;;;;;;2069146;28;20019;-74
2023/10/02 03:55:33;;;;;;;17.92;10.52;;;17.00;99.90;;;;;;2069003;28;20018;-73
2023/10/02 03:56:36;;;;;;;13.43;9.57;;;17.00;99.90;;;;;;2060143;28;20035;-74
2023/10/02 03:57:37;;;;;;;16.48;9.48;;;17.00;99.90;;;;;;2059863;28;20023;-74
2023/10/02 03:58:38;;;;;;;13.75;9.27;;;17.00;99.90;;;;;;2069915;28;20563;-73
2023/10/02 03:59:54;;;;;;;13.95;9.13;;;17.00;99.90;;;;;;2066486;28;20018;-73
2023/10/02 04:00:54;;;;;;;17.38;10.32;;;17.00;99.90;;;;;;2068524;28;20023;-74
2023/10/02 04:02:24;;;;;;;12.93;8.90;;;17.00;99.90;;;;;;2069987;28;20028;-73
2023/10/02 04:03:18;;;;;;;17.70;9.43;;;17.00;99.90;;;;;;2069727;28;20041;-73
2023/10/02 04:04:21;;;;;;;17.10;10.75;;;17.00;99.90;;;;;;2061886;28;20022;-73
2023/10/02 04:05:32;;;;;;;17.00;9.55;;;17.00;99.90;;;;;;2057685;28;20015;-73
2023/10/02 04:06:33;;;;;;;16.30;9.73;;;16.90;99.90;;;;;;2062927;28;20036;-73
2023/10/02 04:07:35;;;;;;;14.95;10.32;;;16.90;99.90;;;;;;2062498;28;20037;-73
2023/10/02 04:08:37;;;;;;;15.90;9.63;;;16.90;99.90;;;;;;2067452;28;20022;-73
2023/10/02 04:09:38;;;;;;;16.73;10.48;;;16.90;99.90;;;;;;2068957;28;20165;-73
2023/10/02 04:10:55;;;;;;;16.73;10.52;;;16.90;99.90;;;;;;2067367;28;20026;-73
2023/10/02 04:11:56;;;;;;;14.77;9.70;;;16.90;99.90;;;;;;2069729;28;20456;-73
2023/10/02 04:13:00;;;;;;;18.20;11.13;;;16.90;99.90;;;;;;2069345;28;20428;-74
2023/10/02 04:14:01;;;;;;;18.67;10.65;;;16.90;99.90;;;;;;2068256;28;20035;-74
2023/10/02 04:15:11;;;;;;;17.98;11.05;;;16.90;99.90;;;;;;2069476;28;20107;-74
2023/10/02 04:16:29;;;;;;;15.98;9.95;;;16.90;99.90;;;;;;2070369;28;20084;-73
2023/10/02 04:17:34;;;;;;;16.42;10.07;;;16.90;99.90;;;;;;2067565;28;20030;-74
2023/10/02 04:18:49;;;;;;;16.08;10.82;;;16.90;99.90;;;;;;2068940;28;20146;-73
2023/10/02 04:19:51;;;;;;;18.00;10.80;;;16.90;99.90;;;;;;2057459;28;21006;-73
2023/10/02 04:21:01;;;;;;;17.48;10.93;;;16.80;99.90;;;;;;2059664;28;20027;-74
2023/10/02 04:22:06;;;;;;;16.48;11.20;;;16.90;99.90;;;;;;2069991;28;20037;-73
2023/10/02 04:23:21;;;;;;;18.05;10.88;;;16.90;99.90;;;;;;2070307;28;20061;-73
2023/10/02 04:24:24;;;;;;;17.23;10.38;;;16.90;99.90;;;;;;2069188;28;20029;-74
2023/10/02 04:25:25;;;;;;;14.50;9.90;;;16.90;99.90;;;;;;2068383;28;20048;-73
2023/10/02 04:26:28;;;;;;;16.52;10.88;;;16.90;99.90;;;;;;2069184;28;20037;-74
2023/10/02 04:28:49;;;;;;;17.50;10.27;;;16.80;99.90;;;;;;2068722;28;20030;-73
2023/10/02 04:31:30;;;;;;;16.02;10.65;;;16.90;99.90;;;;;;2031168;29;20639;-74
2023/10/02 04:32:32;;;;;;;17.15;10.98;;;16.80;99.90;;;;;;2027276;29;20152;-74
2023/10/02 04:33:38;;;;;;;16.30;10.32;;;16.80;99.90;;;;;;2023878;28;20040;-73
2023/10/02 04:34:46;;;;;;;16.35;10.90;;;16.80;99.90;;;;;;2062159;28;20049;-74
2023/10/02 04:35:52;;;;;;;19.08;11.57;;;16.80;99.90;;;;;;2068230;28;20025;-74
2023/10/02 04:36:53;;;;;;;17.33;11.63;;;16.90;99.90;;;;;;2066575;28;20477;-74
2023/10/02 04:37:59;;;;;;;17.08;11.35;;;16.80;99.90;;;;;;2069188;28;20052;-74
2023/10/02 04:39:04;;;;;;;15.95;10.70;;;16.90;99.90;;;;;;2069976;28;20117;-74
2023/10/02 04:40:15;;;;;;;15.98;10.18;;;16.80;99.90;;;;;;2067886;28;20057;-74
2023/10/02 04:41:26;;;;;;;15.38;10.27;;;16.90;99.90;;;;;;2068760;28;20405;-74
2023/10/02 04:42:57;;;;;;;16.98;10.73;;;16.80;99.90;;;;;;2069311;28;20034;-74
2023/10/02 04:43:48;;;;;;;17.25;11.02;;;16.80;99.90;;;;;;2062380;28;20121;-73
2023/10/02 04:44:58;;;;;;;18.15;11.25;;;16.80;99.90;;;;;;2069353;28;20018;-73
2023/10/02 04:46:02;;;;;;;18.75;11.00;;;16.90;99.90;;;;;;2070630;28;20054;-72
2023/10/02 04:47:02;;;;;;;17.23;11.52;;;16.90;99.90;;;;;;2069603;28;20034;-73
2023/10/02 04:48:09;;;;;;;16.95;10.50;;;16.90;99.90;;;;;;2067837;28;20108;-72
2023/10/02 04:49:09;;;;;;;17.65;11.45;;;16.80;99.90;;;;;;2068912;28;20025;-73
2023/10/02 04:51:16;;;;;;;22.08;10.93;;;16.90;99.90;;;;;;2070283;28;20599;-73
2023/10/02 04:52:16;;;;;;;17.30;11.27;;;16.90;99.90;;;;;;2059989;28;20060;-74
2023/10/02 04:54:17;;;;;;;17.48;10.98;;;16.90;99.90;;;;;;2069154;28;20110;-73
2023/10/02 04:55:31;;;;;;;16.90;10.40;;;16.90;99.90;;;;;;2068169;28;20030;-73
2023/10/02 04:56:32;;;;;;;18.38;10.77;;;16.90;99.90;;;;;;2068850;28;20029;-73
2023/10/02 04:57:34;;;;;;;17.55;10.85;;;16.90;99.90;;;;;;2066263;28;20361;-73
2023/10/02 04:58:39;;;;;;;18.65;11.30;;;16.90;99.90;;;;;;2069958;28;20056;-73
2023/10/02 04:59:51;;;;;;;16.98;10.18;;;16.90;99.90;;;;;;2068849;28;20022;-73
2023/10/02 05:02:20;;;;;;;16.85;10.95;;;16.90;99.90;;;;;;2066223;28;20034;-73
2023/10/02 05:03:25;;;;;;;16.10;10.35;;;16.90;99.90;;;;;;2062122;28;20033;-73
2023/10/02 05:04:25;;;;;;;17.85;10.80;;;16.90;99.90;;;;;;2064033;28;20113;-73
2023/10/02 05:05:34;;;;;;;17.13;10.98;;;16.90;99.90;;;;;;2067806;28;20022;-73
2023/10/02 05:06:55;;;;;;;16.67;10.23;;;16.90;99.90;;;;;;2068966;28;20034;-73
2023/10/02 05:07:56;;;;;;;18.35;11.13;;;16.90;99.90;;;;;;2069483;28;20483;-74
2023/10/02 05:09:57;;;;;;;16.77;10.50;;;16.90;99.90;;;;;;2069059;28;20053;-73
2023/10/02 05:11:04;;;;;;;18.23;10.95;;;16.90;99.90;;;;;;2068037;28;20101;-72
2023/10/02 05:12:06;;;;;;;17.98;10.85;;;16.90;99.90;;;;;;2066099;28;20038;-73
2023/10/02 05:13:08;;;;;;;18.58;10.85;;;16.90;99.90;;;;;;2067538;28;20116;-73
2023/10/02 05:14:09;;;;;;;16.98;11.57;;;16.90;99.90;;;;;;2068516;28;20013;-73
2023/10/02 05:15:20;;;;;;;15.93;10.27;;;16.90;99.90;;;;;;2067035;28;20025;-73
2023/10/02 05:16:32;;;;;;;18.38;11.50;;;16.90;99.90;;;;;;2068308;28;20034;-73
2023/10/02 05:17:46;;;;;;;18.50;11.50;;;16.90;99.90;;;;;;2061687;28;20473;-73
2023/10/02 05:18:47;;;;;;;16.92;10.82;;;16.90;99.90;;;;;;2055155;28;20893;-73
2023/10/02 05:20:02;;;;;;;19.25;11.13;;;16.90;99.90;;;;;;2067849;28;20113;-73
2023/10/02 05:21:03;;;;;;;17.17;11.68;;;16.90;99.90;;;;;;2058027;28;20046;-74
2023/10/02 05:22:04;;;;;;;15.88;11.07;;;16.90;99.90;;;;;;2058760;28;20035;-74
2023/10/02 05:23:05;;;;;;;19.50;10.70;;;16.80;99.90;;;;;;2067661;28;20040;-74
2023/10/02 05:24:06;;;;;;;18.27;10.95;;;16.90;99.90;;;;;;2068790;28;20069;-74
2023/10/02 05:25:08;;;;;;;17.25;10.82;;;16.90;99.90;;;;;;2068588;28;20061;-73
2023/10/02 05:26:29;;;;;;;16.83;10.45;;;16.90;99.90;;;;;;2068567;28;20022;-73
2023/10/02 05:27:30;;;;;;;18.58;10.88;;;16.80;99.90;;;;;;2068149;28;20045;-73
2023/10/02 05:28:42;;;;;;;16.85;10.95;;;16.80;99.90;;;;;;2068541;28;20041;-74
2023/10/02 05:29:43;;;;;;;17.00;10.95;;;16.80;99.90;;;;;;2067268;28;20025;-73
2023/10/02 05:30:43;;;;;;;16.80;10.57;;;16.80;99.90;;;;;;2069021;28;20040;-73
2023/10/02 05:31:45;;;;;;;15.23;10.02;;;16.80;99.90;;;;;;2069074;28;20026;-74
2023/10/02 05:32:45;;;;;;;18.40;11.55;;;16.80;99.90;;;;;;2068059;28;20121;-73
2023/10/02 05:33:48;;;;;;;19.00;11.25;;;16.80;99.90;;;;;;2059954;28;20023;-73
2023/10/02 05:36:09;;;;;;;16.02;10.48;;;16.80;99.90;;;;;;2068759;28;20037;-74
2023/10/02 05:38:16;;;;;;;16.63;10.93;;;16.80;99.90;;;;;;2069006;28;20026;-74
2023/10/02 05:39:28;;;;;;;18.67;11.50;;;16.80;99.90;;;;;;2068821;28;20081;-74
2023/10/02 05:40:37;;;;;;;17.30;11.50;;;16.80;99.90;;;;;;2068937;28;20021;-74
2023/10/02 05:41:44;;;;;;;15.98;10.40;;;16.90;99.90;;;;;;2068979;28;20597;-74
2023/10/02 05:42:53;;;;;;;15.05;10.25;;;16.80;99.90;;;;;;2070305;28;20366;-74
2023/10/02 05:43:57;;;;;;;15.60;10.95;;;16.80;99.90;;;;;;2066761;28;20057;-74
2023/10/02 05:44:58;;;;;;;16.67;10.82;;;16.80;99.90;;;;;;2067750;28;20034;-74
2023/10/02 05:46:00;;;;;;;18.80;11.20;;;16.80;99.90;;;;;;2068507;28;20037;-74
2023/10/02 05:47:05;;;;;;;16.90;10.82;;;16.80;99.90;;;;;;2067990;28;20120;-74
2023/10/02 05:49:29;;;;;;;16.58;10.60;;;16.80;99.90;;;;;;2068151;28;20124;-74
2023/10/02 05:50:33;;;;;;;14.23;10.13;;;16.80;99.90;;;;;;2069468;28;20028;-74